Nearby METAR Reports

 

KPMD - Palmdale, California, USA
Distance from station: NNE 12mi, 19km
Updated: Fri, 28-Apr-2017 11:53am PDT
Clear
Clear
 Wind from N
Wind: N 15 mph , 24 km/h, Gust: 24 mph , 39 km/h
Temperature: 70°F , 21°C
Dew Point: 27°F , -3°C
Humidity: 20%
Barometer: 29.90 inHg , 1012.5 hPa
Clouds: Clear
Visibility: 10 miles , 16 km
2017/04/28 18:53 KPMD 281853Z AUTO 35013G21KT 10SM CLR 21/M03 A2990 RMK AO2 SLP105 T02111033
KWJF - Lancaster/Fox, California, USA
Distance from station: N 17mi, 27km
Updated: Fri, 28-Apr-2017 12:47pm PDT
Clear
Clear
 Wind from N
Wind: N 20 mph , 31 km/h, Gust: 28 mph , 44 km/h
Temperature: 72°F , 22°C
Dew Point: 27°F , -3°C
Humidity: 19%
Barometer: 29.88 inHg , 1011.9 hPa
Clouds: Clear
Visibility: 10 miles , 16 km
2017/04/28 19:47 KWJF 281947Z 35017G24KT 10SM CLR 22/M03 A2988 RMK AO2 PK WND 32029/1903 WSHFT 1927 T02221033
 
KMWS - Mount Wilson, California, USA
Distance from station: SSE 18mi, 30km
Updated: Wed, 13-May-2015 6:45am PDT
NOT Current

 Wind from S
Wind: S 3 mph , 6 km/h, Gust: 5 mph , 7 km/h
Temperature: 43°F , 6°C
Dew Point: -0°F , -18°C
Humidity: 16%
2015/05/13 13:45 KMWS 131345Z 18003G04KT 06/M18 RMK SNOW DEPTH 1.00
KWHP - La / Whiteman, California, USA
Distance from station: SW 21mi, 34km
Updated: Fri, 28-Apr-2017 11:55am PDT
Clear
Clear
 Wind from WNW
Wind: WNW 23 mph , 37 km/h, Gust: 30 mph , 48 km/h
Temperature: 68°F , 20°C
Dew Point: 32°F , 0°C
Humidity: 26%
Barometer: 29.87 inHg , 1011.5 hPa
Clouds: Clear
Visibility: 10 miles , 16 km
2017/04/28 18:55 KWHP 281855Z 29020G26KT 10SM SKC 20/00 A2987
 
KBUR - Burbank, California, USA
Distance from station: SSW 22mi, 35km
Updated: Fri, 28-Apr-2017 11:53am PDT
Clear
Clear
 Wind from NW
Wind: NW 16 mph , 26 km/h, Gust: 30 mph , 48 km/h
Temperature: 75°F , 24°C
Dew Point: 28°F , -2°C
Humidity: 18%
Barometer: 29.82 inHg , 1009.8 hPa
Clouds: Clear
Visibility: 10 miles , 16 km
2017/04/28 18:53 KBUR 281853Z 31014G26KT 10SM CLR 24/M02 A2982 RMK AO2 PK WND 31027/1825 SLP084 T02391022
KVNY - Van Nuys, California, USA
Distance from station: SW 25mi, 40km
Updated: Fri, 28-Apr-2017 11:51am PDT
Clear
Clear
 Wind from N
Wind: N 30 mph , 48 km/h, Gust: 40 mph , 65 km/h
Temperature: 75°F , 24°C
Dew Point: 27°F , -3°C
Humidity: 16%
Barometer: 29.81 inHg , 1009.5 hPa
Clouds: Clear
Visibility: 10 miles , 16 km
2017/04/28 18:51 KVNY 281851Z 36026G35KT 10SM CLR 24/M03 A2981 RMK AO2 PK WND 01037/1837 SLP086 T02441028
 
KEDW - Edwards Afb, California, USA
Distance from station: NNE 33mi, 53km
Updated: Fri, 28-Apr-2017 11:58am PDT
Few Clouds
Few Clouds
 Wind from NNE
Wind: NNE 13 mph , 20 km/h, Gust: 17 mph , 28 km/h
Temperature: 70°F , 21°C
Dew Point: 19°F , -7°C
Humidity: 15%
Barometer: 29.86 inHg , 1011.2 hPa
Clouds: Few Clouds
Visibility: 60 miles , 96 km
Cloud details: Few Clouds 33000 ft
2017/04/28 18:58 KEDW 281858Z 02011G15KT 60SM FEW330 21/M07 A2986 RMK AO2A SLP096 T02141070
KSMO - Santa Monica, California, USA
Distance from station: SSW 35mi, 57km
Updated: Fri, 28-Apr-2017 11:51am PDT
Clear
Clear
 Wind from N
Wind: N 14 mph , 22 km/h, Gust: 30 mph , 48 km/h
Temperature: 79°F , 26°C
Dew Point: 28°F , -2°C
Humidity: 16%
Barometer: 29.80 inHg , 1009.1 hPa
Clouds: Clear
Visibility: 10 miles , 16 km
2017/04/28 18:51 KSMO 281851Z 36012G26KT 10SM CLR 26/M02 A2980 RMK AO2 PK WND 36029/1826 SLP089 T02561017
 
KLAX - Los Angeles, California, USA
Distance from station: SSW 39mi, 63km
Updated: Fri, 28-Apr-2017 11:53am PDT
Partly cloudy
Partly cloudy
 Wind from NNW
Wind: NNW 15 mph , 24 km/h, Gust: 24 mph , 39 km/h
Temperature: 81°F , 27°C
Dew Point: 30°F , -1°C
Humidity: 16%
Barometer: 29.80 inHg , 1009.1 hPa
Clouds: Partly cloudy
Visibility: 10 miles , 16 km
Cloud details: Few Clouds 7000 ft
Partly cloudy 16000 ft
2017/04/28 18:53 KLAX 281853Z 34013G21KT 10SM FEW070 SCT160 27/M01 A2980 RMK AO2 SLP088 T02671006
KMHV - Mojave, California, USA
Distance from station: N 41mi, 66km
Updated: Fri, 28-Apr-2017 12:20pm PDT
Clear
Clear
 Wind from N
Wind: N 9 mph , 15 km/h
Temperature: 70°F , 21°C
Dew Point: 23°F , -5°C
Humidity: 17%
Barometer: 29.87 inHg , 1011.5 hPa
Clouds: Clear
Visibility: 10 miles , 16 km
2017/04/28 19:20 KMHV 281920Z AUTO 35008KT 10SM CLR 21/M05 A2987 RMK A01
 
KFUL - Fullerton, California, USA
Distance from station: SSE 44mi, 70km
Updated: Fri, 28-Apr-2017 11:53am PDT
Clear
Clear
 Wind from S
Wind: S 9 mph , 15 km/h
Temperature: 77°F , 25°C
Dew Point: 48°F , 9°C
Humidity: 36%
Barometer: 29.78 inHg , 1008.5 hPa
Clouds: Clear
Visibility: 10 miles , 16 km
2017/04/28 18:53 KFUL 281853Z 18008KT 10SM CLR 25/09 A2978 RMK AO2 SLP084 T02500094
KONT - Ontario, California, USA
Distance from station: SE 45mi, 72km
Updated: Fri, 28-Apr-2017 11:53am PDT
Few Clouds
Few Clouds
 Wind from W
Wind: W 6 mph , 9 km/h
Temperature: 75°F , 24°C
Dew Point: 39°F , 4°C
Humidity: 27%
Barometer: 29.81 inHg , 1009.5 hPa
Clouds: Few Clouds
Visibility: 10 miles , 16 km
Cloud details: Few Clouds 7500 ft
Few Clouds 25000 ft
2017/04/28 18:53 KONT 281853Z 27005KT 10SM FEW075 FEW250 24/04 A2981 RMK AO2 SLP080 T02390044
 
KLGB - Long Beach, California, USA
Distance from station: S 46mi, 74km
Updated: Fri, 28-Apr-2017 11:53am PDT
Clear
Clear
 Wind from S
Wind: S 10 mph , 17 km/h
Temperature: 70°F , 21°C
Dew Point: 54°F , 12°C
Humidity: 57%
Barometer: 29.80 inHg , 1009.1 hPa
Clouds: Clear
Visibility: 9 miles , 14 km
2017/04/28 18:53 KLGB 281853Z 18009KT 9SM CLR 21/12 A2980 RMK AO2 SLP090 T02110122
KVCV - Victorville, California, USA
Distance from station: E 46mi, 74km
Updated: Fri, 28-Apr-2017 12:35pm PDT
Partly cloudy
Partly cloudy
 Wind from calm
Wind: Calm
Temperature: 66°F , 19°C
Dew Point: 16°F , -9°C
Humidity: 14%
Barometer: 29.89 inHg , 1012.2 hPa
Clouds: Partly cloudy
Visibility: 10 miles , 16 km
Cloud details: Partly cloudy 11000 ft
2017/04/28 19:35 KVCV 281935Z AUTO 00000KT 10SM SCT110 19/M09 A2989 RMK AO2
 
KTSP - Tehachapi, California, USA
Distance from station: NNW 48mi, 77km
Updated: Fri, 28-Apr-2017 12:35pm PDT
Clear
Clear
 Wind from NW
Wind: NW 18 mph , 30 km/h, Gust: 31 mph , 50 km/h
Temperature: 55°F , 13°C
Dew Point: 34°F , 1°C
Humidity: 44%
Barometer: 29.98 inHg , 1015.2 hPa
Clouds: Clear
Visibility: 10 miles , 16 km
2017/04/28 19:35 KTSP 281935Z AUTO 32016G27KT 10SM CLR 13/01 A2998 RMK AO2